Aviation Digital Data Service (ADDS)

Output produced by METARs form (0528 UTC 25 June 2017)
found at http://aviationweather.gov/adds/metars/
 
KRWI 250430Z 2505/2524 25004KT P6SM SCT015 BKN100 
     TEMPO 2508/2512 4SM BR 
     FM251400 34005KT P6SM SCT060 BKN180